createdAt,value
2018-07-23T00:01:00.115Z,20.52
2018-07-23T00:03:28.631Z,20.44
2018-07-23T00:05:56.831Z,20.40
2018-07-23T00:08:24.883Z,20.32
2018-07-23T00:10:52.980Z,20.19
2018-07-23T00:13:21.049Z,20.15
2018-07-23T00:15:49.326Z,20.13
2018-07-23T00:18:17.355Z,20.09
2018-07-23T00:20:45.487Z,20.03
2018-07-23T00:23:13.507Z,19.75
2018-07-23T00:25:41.588Z,19.93
2018-07-23T00:28:09.684Z,19.90
2018-07-23T00:30:37.848Z,19.87
2018-07-23T00:33:05.875Z,19.89
2018-07-23T00:35:33.943Z,19.87
2018-07-23T00:38:01.993Z,19.82
2018-07-23T00:40:30.023Z,19.78
2018-07-23T00:42:58.041Z,19.73
2018-07-23T00:45:26.060Z,19.71
2018-07-23T00:47:54.103Z,19.69
2018-07-23T00:50:22.124Z,19.68
2018-07-23T00:52:50.147Z,19.65
2018-07-23T00:55:18.164Z,19.64
2018-07-23T00:57:46.203Z,19.66
2018-07-23T01:00:14.226Z,19.69
2018-07-23T01:02:42.479Z,19.69
2018-07-23T01:05:10.515Z,19.66
2018-07-23T01:07:38.536Z,19.63
2018-07-23T01:10:06.568Z,19.60
2018-07-23T01:12:35.498Z,19.61
2018-07-23T01:15:03.651Z,19.61
2018-07-23T01:17:31.682Z,19.62
2018-07-23T01:20:00.266Z,19.61
2018-07-23T01:22:28.883Z,19.62
2018-07-23T01:24:57.791Z,19.60
2018-07-23T01:27:25.816Z,19.59
2018-07-23T01:29:53.823Z,19.59
2018-07-23T01:32:22.231Z,19.62
2018-07-23T01:34:50.391Z,19.63
2018-07-23T01:37:18.904Z,19.63
2018-07-23T01:39:46.954Z,19.64
2018-07-23T01:42:14.962Z,19.64
2018-07-23T01:44:43.087Z,19.61
2018-07-23T01:47:11.550Z,19.62
2018-07-23T01:49:39.582Z,19.61
2018-07-23T01:52:07.630Z,19.58
2018-07-23T01:54:36.033Z,19.57
2018-07-23T01:57:04.348Z,19.53
2018-07-23T01:59:32.400Z,19.46
2018-07-23T02:02:00.435Z,19.42
2018-07-23T02:04:28.479Z,19.40
2018-07-23T02:06:56.507Z,19.34
2018-07-23T02:09:24.564Z,19.27
2018-07-23T02:11:52.607Z,19.19
2018-07-23T02:14:20.630Z,19.15
2018-07-23T02:16:48.667Z,19.14
2018-07-23T02:19:16.683Z,19.11
2018-07-23T02:21:44.739Z,19.07
2018-07-23T02:24:12.781Z,19.01
2018-07-23T02:26:40.787Z,18.98
2018-07-23T02:29:08.827Z,18.92
2018-07-23T02:31:36.883Z,18.79
2018-07-23T02:34:04.899Z,18.75
2018-07-23T02:36:32.939Z,18.74
2018-07-23T02:39:00.991Z,18.72
2018-07-23T02:41:29.039Z,18.69
2018-07-23T02:43:57.063Z,18.64
2018-07-23T02:46:25.114Z,18.54
2018-07-23T02:48:53.162Z,18.48
2018-07-23T02:51:21.207Z,18.39
2018-07-23T02:53:49.245Z,18.35
2018-07-23T02:56:17.263Z,18.34
2018-07-23T02:58:45.411Z,18.30
2018-07-23T03:01:13.448Z,18.29
2018-07-23T03:03:41.491Z,18.29
2018-07-23T03:06:09.499Z,18.24
2018-07-23T03:08:37.539Z,18.22
2018-07-23T03:11:05.579Z,18.21
2018-07-23T03:13:33.623Z,18.17
2018-07-23T03:16:01.663Z,18.12
2018-07-23T03:18:29.736Z,18.06
2018-07-23T03:20:57.770Z,17.99
2018-07-23T03:23:25.863Z,17.96
2018-07-23T03:25:53.893Z,17.87
2018-07-23T03:28:22.012Z,17.76
2018-07-23T03:30:50.100Z,17.73
2018-07-23T03:33:18.074Z,17.73
2018-07-23T03:35:46.122Z,17.71
2018-07-23T03:38:14.172Z,17.66
2018-07-23T03:40:42.223Z,17.67
2018-07-23T03:43:10.268Z,17.70
2018-07-23T03:45:38.307Z,17.74
2018-07-23T03:48:06.379Z,17.77
2018-07-23T03:50:34.411Z,17.78
2018-07-23T03:53:02.472Z,17.80
2018-07-23T03:55:30.511Z,17.78
2018-07-23T03:57:58.559Z,17.79
2018-07-23T04:00:26.635Z,17.83
2018-07-23T04:02:54.682Z,17.88
2018-07-23T04:05:22.720Z,17.92
2018-07-23T04:07:50.756Z,17.97
2018-07-23T04:10:18.803Z,18.02
2018-07-23T04:12:46.838Z,18.08
2018-07-23T04:15:15.040Z,18.11
2018-07-23T04:17:43.073Z,18.14
2018-07-23T04:20:11.111Z,18.17
2018-07-23T04:22:39.184Z,18.26
2018-07-23T04:25:07.259Z,18.36
2018-07-23T04:27:35.407Z,18.46
2018-07-23T04:30:03.495Z,18.58
2018-07-23T04:32:31.535Z,18.69
2018-07-23T04:34:59.603Z,18.78
2018-07-23T04:37:27.631Z,18.90
2018-07-23T04:39:55.651Z,19.06
2018-07-23T04:42:23.701Z,19.43
2018-07-23T04:44:51.711Z,19.91
2018-07-23T04:47:19.752Z,20.40
2018-07-23T04:49:47.968Z,20.91
2018-07-23T04:52:15.980Z,21.35
2018-07-23T04:54:44.036Z,21.87
2018-07-23T04:57:12.076Z,22.40
2018-07-23T04:59:40.099Z,22.86
2018-07-23T05:02:08.135Z,23.03
2018-07-23T05:04:36.167Z,23.30
2018-07-23T05:07:04.308Z,23.51
2018-07-23T05:09:32.362Z,23.71
2018-07-23T05:12:00.383Z,24.14
2018-07-23T05:14:28.415Z,24.58
2018-07-23T05:16:56.428Z,25.00
2018-07-23T05:19:24.779Z,25.30
2018-07-23T05:21:52.870Z,25.55
2018-07-23T05:24:20.957Z,25.86
2018-07-23T05:26:49.000Z,26.07
2018-07-23T05:29:17.036Z,26.21
2018-07-23T05:31:45.144Z,26.27
2018-07-23T05:34:13.115Z,26.60
2018-07-23T05:36:41.488Z,26.92
2018-07-23T05:39:10.982Z,27.40
2018-07-23T05:41:39.016Z,27.81
2018-07-23T05:44:07.144Z,28.14
2018-07-23T05:46:35.215Z,28.18
2018-07-23T05:49:03.274Z,28.33
2018-07-23T05:51:31.335Z,28.46
2018-07-23T05:53:59.387Z,28.66
2018-07-23T05:56:27.633Z,28.85
2018-07-23T05:58:55.811Z,29.05
2018-07-23T06:01:23.843Z,29.26
2018-07-23T06:03:52.180Z,29.53
2018-07-23T06:06:20.283Z,29.84
2018-07-23T06:08:48.296Z,30.13
2018-07-23T06:11:16.709Z,30.05
2018-07-23T06:13:44.746Z,30.17
2018-07-23T06:16:12.772Z,30.39
2018-07-23T06:18:40.863Z,30.80
2018-07-23T06:21:08.915Z,30.51
2018-07-23T06:23:36.993Z,30.93
2018-07-23T06:26:05.162Z,31.52
2018-07-23T06:28:33.363Z,31.95
2018-07-23T06:31:01.397Z,32.09
2018-07-23T06:33:29.584Z,32.05
2018-07-23T06:35:57.612Z,31.88
2018-07-23T06:38:25.652Z,31.59
2018-07-23T06:40:53.707Z,31.13
2018-07-23T06:43:21.730Z,30.78
2018-07-23T06:45:49.781Z,30.41
2018-07-23T06:48:17.822Z,30.15
2018-07-23T06:50:46.258Z,30.11
2018-07-23T06:53:14.298Z,30.27
2018-07-23T06:55:42.363Z,30.95
2018-07-23T06:58:10.439Z,31.58
2018-07-23T07:00:38.473Z,32.07
2018-07-23T07:03:06.944Z,31.96
2018-07-23T07:05:34.983Z,32.06
2018-07-23T07:08:03.023Z,32.60
2018-07-23T07:10:31.071Z,33.11
2018-07-23T07:12:59.084Z,33.24
2018-07-23T07:15:27.155Z,33.25
2018-07-23T07:17:55.212Z,33.45
2018-07-23T07:20:23.290Z,33.45
2018-07-23T07:22:51.349Z,33.69
2018-07-23T07:25:19.465Z,33.96
2018-07-23T07:27:47.511Z,33.90
2018-07-23T07:30:15.554Z,33.96
2018-07-23T07:32:43.669Z,33.60
2018-07-23T07:35:11.731Z,33.65
2018-07-23T07:37:39.758Z,33.93
2018-07-23T07:40:07.808Z,34.08
2018-07-23T07:42:35.858Z,34.24
2018-07-23T07:45:04.003Z,34.30
2018-07-23T07:47:32.064Z,34.50
2018-07-23T07:50:00.112Z,34.77
2018-07-23T07:52:28.190Z,34.87
2018-07-23T07:54:56.207Z,34.69
2018-07-23T07:57:24.540Z,34.69
2018-07-23T07:59:52.601Z,34.74
2018-07-23T08:02:20.647Z,34.75
2018-07-23T08:04:48.736Z,34.62
2018-07-23T08:07:16.829Z,34.70
2018-07-23T08:09:45.148Z,34.85
2018-07-23T08:12:13.184Z,34.92
2018-07-23T08:14:41.234Z,34.78
2018-07-23T08:17:09.267Z,34.81
2018-07-23T08:19:37.328Z,34.37
2018-07-23T08:22:05.381Z,34.00
2018-07-23T08:24:33.454Z,34.06
2018-07-23T08:27:01.471Z,33.77
2018-07-23T08:29:29.794Z,34.04
2018-07-23T08:31:58.067Z,34.00
2018-07-23T08:34:25.936Z,34.00
2018-07-23T08:36:53.972Z,33.86
2018-07-23T08:39:22.013Z,33.91
2018-07-23T08:41:50.062Z,33.94
2018-07-23T08:44:18.081Z,33.85
2018-07-23T08:46:46.163Z,33.92
2018-07-23T08:49:14.548Z,33.80
2018-07-23T08:51:42.570Z,33.75
2018-07-23T08:54:10.673Z,33.45
2018-07-23T08:56:38.719Z,33.39
2018-07-23T08:59:06.790Z,33.32
2018-07-23T09:01:35.055Z,33.12
2018-07-23T09:04:03.095Z,32.93
2018-07-23T09:06:31.154Z,32.86
2018-07-23T09:08:59.191Z,32.86
2018-07-23T09:11:27.225Z,32.75
2018-07-23T09:13:55.295Z,32.43
2018-07-23T09:16:23.347Z,32.41
2018-07-23T09:18:51.939Z,32.54
2018-07-23T09:21:19.963Z,32.25
2018-07-23T09:23:48.013Z,32.49
2018-07-23T09:26:16.047Z,32.77
2018-07-23T09:28:44.087Z,32.58
2018-07-23T09:31:12.167Z,32.69
2018-07-23T09:33:40.211Z,32.58
2018-07-23T09:36:08.259Z,33.10
2018-07-23T09:38:36.353Z,33.35
2018-07-23T09:41:04.427Z,33.66
2018-07-23T09:43:32.735Z,33.80
2018-07-23T09:46:00.775Z,34.06
2018-07-23T09:48:28.814Z,34.33
2018-07-23T09:50:57.139Z,34.54
2018-07-23T09:53:25.205Z,34.76
2018-07-23T09:55:53.232Z,34.79
2018-07-23T09:58:21.378Z,35.01
2018-07-23T10:00:54.683Z,35.03
2018-07-23T10:03:22.832Z,34.32
2018-07-23T10:05:50.772Z,33.78
2018-07-23T10:08:18.815Z,33.90
2018-07-23T10:10:46.856Z,33.56
2018-07-23T10:13:14.899Z,33.10
2018-07-23T10:15:43.218Z,32.75
2018-07-23T10:18:11.268Z,31.93
2018-07-23T10:20:39.279Z,31.23
2018-07-23T10:23:07.648Z,30.64
2018-07-23T10:25:35.667Z,30.61
2018-07-23T10:28:03.707Z,30.32
2018-07-23T10:30:31.767Z,29.79
2018-07-23T10:32:59.866Z,29.82
2018-07-23T10:35:27.903Z,29.67
2018-07-23T10:37:55.983Z,29.70
2018-07-23T10:40:24.002Z,29.74
2018-07-23T10:42:52.395Z,29.72
2018-07-23T10:45:20.443Z,29.47
2018-07-23T10:47:48.496Z,29.45
2018-07-23T10:50:16.561Z,29.44
2018-07-23T10:52:44.592Z,29.12
2018-07-23T10:55:12.656Z,28.67
2018-07-23T10:57:40.730Z,28.62
2018-07-23T11:00:08.889Z,28.71
2018-07-23T11:02:37.488Z,28.74
2018-07-23T11:05:06.435Z,28.52
2018-07-23T11:07:34.518Z,28.66
2018-07-23T11:10:02.733Z,28.72
2018-07-23T11:12:31.288Z,28.85
2018-07-23T11:14:59.437Z,28.95
2018-07-23T11:17:27.545Z,29.08
2018-07-23T11:19:55.684Z,29.15
2018-07-23T11:22:23.797Z,29.15
2018-07-23T11:24:51.970Z,29.08
2018-07-23T11:27:20.050Z,29.14
2018-07-23T11:29:48.112Z,29.20
2018-07-23T11:32:16.393Z,29.25
2018-07-23T11:34:44.459Z,29.30
2018-07-23T11:37:12.529Z,28.89
2018-07-23T11:39:40.664Z,28.70
2018-07-23T11:42:08.707Z,28.82
2018-07-23T11:44:36.808Z,29.00
2018-07-23T11:47:05.129Z,29.10
2018-07-23T11:49:33.461Z,29.15
2018-07-23T11:52:01.529Z,29.23
2018-07-23T11:54:29.572Z,29.25
2018-07-23T11:56:57.792Z,29.28
2018-07-23T11:59:25.788Z,29.32
2018-07-23T12:01:53.853Z,29.28
2018-07-23T12:04:21.975Z,29.13
2018-07-23T12:06:49.963Z,28.96
2018-07-23T12:09:18.048Z,29.00
2018-07-23T12:11:46.148Z,29.08
2018-07-23T12:14:14.197Z,29.16
2018-07-23T12:16:42.264Z,29.12
2018-07-23T12:19:10.318Z,29.00
2018-07-23T12:21:38.404Z,29.13
2018-07-23T12:24:06.626Z,29.17
2018-07-23T12:26:34.669Z,29.00
2018-07-23T12:29:02.739Z,29.11
2018-07-23T12:31:30.809Z,29.18
2018-07-23T12:33:58.871Z,29.28
2018-07-23T12:36:26.921Z,29.32
2018-07-23T12:38:54.967Z,29.19
2018-07-23T12:41:23.069Z,29.17
2018-07-23T12:43:51.955Z,29.24
2018-07-23T12:46:20.208Z,29.32
2018-07-23T12:48:48.270Z,29.41
2018-07-23T12:51:16.332Z,29.40
2018-07-23T12:53:44.363Z,29.44
2018-07-23T12:56:12.569Z,29.50
2018-07-23T12:58:40.618Z,29.54
2018-07-23T13:01:09.249Z,29.56
2018-07-23T13:03:37.365Z,29.59
2018-07-23T13:06:05.439Z,29.60
2018-07-23T13:08:33.504Z,29.58
2018-07-23T13:11:01.556Z,29.55
2018-07-23T13:13:29.596Z,29.62
2018-07-23T13:15:57.666Z,29.58
2018-07-23T13:18:25.722Z,29.52
2018-07-23T13:20:53.793Z,29.66
2018-07-23T13:23:21.854Z,29.78
2018-07-23T13:25:49.946Z,29.80
2018-07-23T13:28:18.011Z,29.84
2018-07-23T13:30:46.081Z,29.84
2018-07-23T13:33:14.188Z,29.78
2018-07-23T13:35:42.267Z,29.77
2018-07-23T13:38:10.376Z,29.69
2018-07-23T13:40:38.426Z,29.66
2018-07-23T13:43:06.491Z,29.49
2018-07-23T13:45:34.663Z,29.58
2018-07-23T13:48:02.773Z,29.71
2018-07-23T13:50:30.969Z,29.79
2018-07-23T13:52:59.085Z,29.86
2018-07-23T13:55:27.336Z,29.76
2018-07-23T13:57:55.416Z,29.60
2018-07-23T14:00:23.488Z,29.64
2018-07-23T14:02:51.563Z,29.67
2018-07-23T14:05:19.668Z,29.74
2018-07-23T14:07:47.700Z,29.70
2018-07-23T14:10:15.783Z,29.84
2018-07-23T14:12:43.877Z,29.93
2018-07-23T14:15:11.972Z,29.97
2018-07-23T14:17:40.013Z,29.94
2018-07-23T14:20:08.108Z,30.00
2018-07-23T14:22:36.186Z,30.09
2018-07-23T14:25:04.432Z,30.11
2018-07-23T14:27:32.705Z,30.05
2018-07-23T14:30:00.779Z,29.96
2018-07-23T14:32:28.876Z,29.95
2018-07-23T14:34:56.944Z,29.97
2018-07-23T14:37:25.040Z,29.94
2018-07-23T14:39:54.177Z,29.99
2018-07-23T14:42:22.272Z,30.02
2018-07-23T14:44:50.343Z,30.10
2018-07-23T14:47:18.445Z,30.12
2018-07-23T14:49:46.550Z,30.15
2018-07-23T14:52:14.574Z,29.69
2018-07-23T14:54:49.067Z,29.76
2018-07-23T14:57:17.142Z,29.80
2018-07-23T14:59:45.348Z,29.94
2018-07-23T15:02:13.475Z,30.06
2018-07-23T15:04:41.578Z,30.12
2018-07-23T15:07:09.919Z,30.10
2018-07-23T15:09:38.418Z,30.03
2018-07-23T15:12:06.526Z,30.19
2018-07-23T15:14:34.629Z,30.28
2018-07-23T15:17:02.681Z,30.40
2018-07-23T15:19:30.735Z,30.40
2018-07-23T15:21:58.842Z,30.44
2018-07-23T15:24:26.923Z,30.45
2018-07-23T15:26:54.988Z,30.49
2018-07-23T15:29:23.080Z,30.50
2018-07-23T15:31:51.222Z,30.43
2018-07-23T15:34:19.863Z,30.49
2018-07-23T15:36:48.489Z,30.50
2018-07-23T15:39:16.659Z,30.28
2018-07-23T15:41:44.968Z,30.22
2018-07-23T15:44:13.200Z,30.08
2018-07-23T15:46:41.212Z,30.09
2018-07-23T15:49:09.454Z,30.14
2018-07-23T15:51:37.538Z,29.99
2018-07-23T15:54:05.978Z,30.14
2018-07-23T15:56:34.205Z,30.19
2018-07-23T15:59:02.350Z,30.28
2018-07-23T16:01:30.505Z,30.15
2018-07-23T16:03:58.954Z,30.18
2018-07-23T16:06:27.070Z,30.26
2018-07-23T16:08:55.448Z,30.34
2018-07-23T16:11:23.624Z,30.36
2018-07-23T16:13:51.719Z,30.44
2018-07-23T16:16:19.860Z,30.44
2018-07-23T16:18:47.968Z,30.40
2018-07-23T16:21:16.237Z,30.33
2018-07-23T16:23:44.363Z,30.53
2018-07-23T16:26:12.432Z,30.48
2018-07-23T16:28:40.606Z,30.44
2018-07-23T16:31:08.672Z,30.36
2018-07-23T16:33:37.088Z,30.41
2018-07-23T16:36:05.153Z,30.40
2018-07-23T16:38:33.269Z,30.35
2018-07-23T16:41:01.431Z,30.34
2018-07-23T16:43:29.604Z,30.27
2018-07-23T16:45:57.817Z,30.10
2018-07-23T16:48:25.851Z,30.07
2018-07-23T16:50:53.907Z,30.13
2018-07-23T16:53:22.282Z,30.15
2018-07-23T16:55:50.440Z,30.12
2018-07-23T16:58:18.839Z,30.10
2018-07-23T17:00:46.939Z,30.04
2018-07-23T17:03:15.103Z,30.00
2018-07-23T17:05:45.592Z,30.01
2018-07-23T17:08:14.046Z,30.03
2018-07-23T17:10:42.147Z,30.06
2018-07-23T17:13:10.234Z,30.09
2018-07-23T17:15:38.348Z,30.10
2018-07-23T17:18:06.526Z,30.10
2018-07-23T17:20:34.960Z,30.07
2018-07-23T17:23:03.093Z,30.02
2018-07-23T17:25:31.253Z,30.06
2018-07-23T17:27:59.782Z,30.06
2018-07-23T17:30:27.875Z,30.04
2018-07-23T17:32:55.948Z,29.99
2018-07-23T17:35:24.097Z,29.98
2018-07-23T17:37:52.166Z,29.98
2018-07-23T17:40:20.268Z,29.96
2018-07-23T17:42:48.356Z,29.93
2018-07-23T17:45:16.519Z,29.92
2018-07-23T17:47:44.656Z,29.91
2018-07-23T17:50:15.956Z,29.91
2018-07-23T17:52:44.330Z,29.89
2018-07-23T17:55:12.719Z,29.78
2018-07-23T17:57:40.780Z,29.72
2018-07-23T18:00:08.865Z,29.72
2018-07-23T18:02:36.937Z,29.72
2018-07-23T18:05:05.000Z,29.70
2018-07-23T18:07:33.098Z,29.63
2018-07-23T18:10:01.265Z,29.58
2018-07-23T18:12:29.318Z,29.56
2018-07-23T18:14:57.401Z,29.56
2018-07-23T18:17:25.478Z,29.53
2018-07-23T18:19:53.542Z,29.49
2018-07-23T18:22:21.882Z,29.46
2018-07-23T18:24:49.984Z,29.42
2018-07-23T18:27:18.051Z,29.33
2018-07-23T18:29:46.291Z,29.35
2018-07-23T18:32:14.450Z,29.32
2018-07-23T18:34:42.539Z,29.30
2018-07-23T18:37:10.653Z,29.25
2018-07-23T18:39:39.022Z,29.19
2018-07-23T18:42:07.167Z,29.04
2018-07-23T18:44:35.264Z,29.01
2018-07-23T18:47:03.372Z,28.98
2018-07-23T18:49:44.023Z,28.93
2018-07-23T18:52:12.522Z,28.85
2018-07-23T18:54:41.372Z,28.81
2018-07-23T18:57:09.998Z,28.77
2018-07-23T18:59:38.153Z,28.73
2018-07-23T19:02:07.771Z,28.67
2018-07-23T19:04:35.811Z,28.60
2018-07-23T19:07:03.916Z,28.54
2018-07-23T19:09:32.102Z,28.47
2018-07-23T19:12:00.708Z,28.42
2018-07-23T19:14:29.044Z,28.36
2018-07-23T19:16:58.126Z,28.27
2018-07-23T19:19:26.359Z,28.17
2018-07-23T19:21:54.499Z,28.08
2018-07-23T19:24:22.694Z,28.01
2018-07-23T19:26:51.434Z,27.94
2018-07-23T19:29:19.572Z,27.86
2018-07-23T19:31:48.015Z,27.79
2018-07-23T19:34:16.235Z,27.70
2018-07-23T19:36:44.356Z,27.60
2018-07-23T19:39:14.305Z,27.52
2018-07-23T19:41:42.450Z,27.45
2018-07-23T19:44:10.890Z,27.36
2018-07-23T19:46:39.162Z,27.23
2018-07-23T19:49:07.311Z,27.12
2018-07-23T19:51:35.691Z,27.04
2018-07-23T19:54:03.947Z,26.93
2018-07-23T19:56:32.077Z,26.85
2018-07-23T19:59:00.328Z,26.78
2018-07-23T20:01:28.429Z,26.71
2018-07-23T20:03:56.624Z,26.64
2018-07-23T20:06:26.151Z,26.56
2018-07-23T20:08:55.041Z,26.49
2018-07-23T20:11:23.910Z,26.42
2018-07-23T20:13:52.266Z,26.36
2018-07-23T20:16:20.511Z,26.28
2018-07-23T20:18:48.615Z,26.21
2018-07-23T20:21:16.715Z,26.13
2018-07-23T20:23:45.099Z,26.04
2018-07-23T20:26:13.236Z,25.97
2018-07-23T20:28:41.311Z,25.91
2018-07-23T20:31:09.580Z,25.85
2018-07-23T20:33:37.643Z,25.79
2018-07-23T20:36:06.262Z,25.74
2018-07-23T20:38:34.801Z,25.67
2018-07-23T20:41:02.887Z,25.61
2018-07-23T20:43:31.715Z,25.57
2018-07-23T20:46:00.321Z,25.53
2018-07-23T20:48:28.408Z,25.43
2018-07-23T20:50:56.820Z,25.36
2018-07-23T20:53:24.883Z,25.29
2018-07-23T20:55:53.095Z,25.21
2018-07-23T20:58:21.471Z,25.14
2018-07-23T21:00:49.566Z,25.09
2018-07-23T21:03:17.656Z,25.03
2018-07-23T21:05:45.757Z,24.96
2018-07-23T21:08:13.865Z,24.90
2018-07-23T21:10:41.992Z,24.84
2018-07-23T21:13:10.097Z,24.76
2018-07-23T21:15:38.467Z,24.66
2018-07-23T21:18:06.614Z,24.59
2018-07-23T21:20:34.730Z,24.53
2018-07-23T21:23:03.012Z,24.46
2018-07-23T21:25:31.149Z,24.40
2018-07-23T21:27:59.252Z,24.34
2018-07-23T21:30:27.328Z,24.30
2018-07-23T21:32:55.419Z,24.27
2018-07-23T21:35:23.560Z,24.24
2018-07-23T21:37:51.812Z,24.21
2018-07-23T21:40:19.927Z,24.16
2018-07-23T21:42:48.073Z,24.12
2018-07-23T21:45:16.486Z,24.07
2018-07-23T21:47:44.564Z,23.98
2018-07-23T21:50:12.619Z,23.91
2018-07-23T21:52:40.774Z,23.84
2018-07-23T21:55:08.938Z,23.78
2018-07-23T21:57:37.011Z,23.74
2018-07-23T22:00:09.389Z,23.70
2018-07-23T22:02:38.088Z,23.66
2018-07-23T22:05:06.766Z,23.64
2018-07-23T22:07:34.887Z,23.64
2018-07-23T22:10:03.046Z,23.60
2018-07-23T22:12:31.213Z,23.55
2018-07-23T22:14:59.271Z,23.49
2018-07-23T22:17:27.324Z,23.44
2018-07-23T22:19:55.440Z,23.38
2018-07-23T22:22:23.827Z,23.33
2018-07-23T22:24:51.946Z,23.32
2018-07-23T22:27:20.044Z,23.29
2018-07-23T22:29:48.145Z,23.24
2018-07-23T22:32:16.227Z,23.19
2018-07-23T22:34:44.330Z,23.13
2018-07-23T22:37:12.536Z,23.07
2018-07-23T22:39:40.602Z,23.02
2018-07-23T22:42:08.717Z,23.00
2018-07-23T22:44:36.895Z,22.94
2018-07-23T22:47:05.331Z,22.84
2018-07-23T22:49:33.414Z,22.79
2018-07-23T22:52:01.486Z,22.78
2018-07-23T22:54:29.549Z,22.77
2018-07-23T22:56:57.612Z,22.77
2018-07-23T22:59:25.698Z,22.77
2018-07-23T23:01:53.776Z,22.77
2018-07-23T23:04:21.817Z,22.77
2018-07-23T23:06:49.913Z,22.73
2018-07-23T23:09:18.007Z,22.71
2018-07-23T23:11:46.095Z,22.66
2018-07-23T23:14:14.166Z,22.62
2018-07-23T23:16:42.212Z,22.58
2018-07-23T23:19:10.344Z,22.52
2018-07-23T23:21:38.379Z,22.47
2018-07-23T23:24:06.467Z,22.45
2018-07-23T23:26:34.523Z,22.42
2018-07-23T23:29:02.600Z,22.39
2018-07-23T23:31:30.636Z,22.31
2018-07-23T23:33:58.672Z,22.26
2018-07-23T23:36:26.733Z,22.20
2018-07-23T23:38:55.123Z,22.12
2018-07-23T23:41:23.163Z,22.05
2018-07-23T23:43:51.211Z,22.01
2018-07-23T23:46:19.339Z,21.99
2018-07-23T23:48:47.412Z,21.99
2018-07-23T23:51:15.490Z,21.96
2018-07-23T23:53:43.545Z,21.94
2018-07-23T23:56:11.624Z,21.92
2018-07-23T23:58:39.656Z,21.90
